Terminal Aerodrome Forecast
Issued by NWS

Home | Current Version | Previous Version | Text Only | Print | Product List | Glossary On
Versions: 1 2 3 4 5 6 7 8 9 10 11 12 13 14 15 16
000
FTUS42 KMLB 011125
TAFFPR
TAF
KFPR 011125Z 0112/0212 21004KT P6SM VCSH SCT040 BKN250
     FM011400 VRB04KT P6SM FEW035 SCT250
     FM011700 12008KT P6SM VCSH SCT035 SCT250
     FM012000 24006KT P6SM VCTS SCT040CB SCT060
     FM012300 25005KT P6SM FEW035 BKN120=

USA.gov is the U.S. government's official web portal to all federal, state and local government web resources and services.